createdAt,value
2018-10-12T00:02:20.758Z,246.43
2018-10-12T00:04:49.899Z,237.20
2018-10-12T00:07:18.584Z,234.70
2018-10-12T00:09:48.712Z,264.68
2018-10-12T00:12:18.779Z,239.90
2018-10-12T00:14:47.939Z,250.10
2018-10-12T00:17:16.719Z,237.55
2018-10-12T00:19:46.449Z,238.68
2018-10-12T00:22:15.618Z,248.87
2018-10-12T00:24:44.413Z,240.85
2018-10-12T00:27:14.433Z,237.05
2018-10-12T00:29:43.284Z,240.80
2018-10-12T00:32:12.378Z,230.43
2018-10-12T00:34:41.170Z,235.63
2018-10-12T00:37:10.104Z,234.90
2018-10-12T00:39:38.956Z,250.10
2018-10-12T00:42:07.850Z,232.55
2018-10-12T00:44:36.475Z,241.55
2018-10-12T00:47:05.450Z,237.42
2018-10-12T00:49:34.336Z,258.05
2018-10-12T00:52:03.011Z,284.05
2018-10-12T00:54:32.077Z,260.45
2018-10-12T00:57:00.881Z,256.17
2018-10-12T00:59:29.829Z,288.50
2018-10-12T01:01:58.992Z,388.40
2018-10-12T01:04:28.962Z,239.42
2018-10-12T01:06:57.829Z,233.82
2018-10-12T01:09:26.941Z,243.17
2018-10-12T01:12:00.998Z,238.82
2018-10-12T01:14:30.441Z,234.55
2018-10-12T01:16:59.246Z,227.85
2018-10-12T01:19:27.899Z,244.07
2018-10-12T01:21:57.108Z,243.90
2018-10-12T01:24:26.284Z,248.00
2018-10-12T01:29:49.925Z,443.00
2018-10-12T01:32:23.880Z,255.12
2018-10-12T01:34:53.223Z,246.72
2018-10-12T01:37:22.029Z,247.05
2018-10-12T01:39:51.251Z,236.87
2018-10-12T01:42:20.380Z,239.27
2018-10-12T01:44:50.298Z,329.85
2018-10-12T01:47:19.056Z,308.47
2018-10-12T01:49:48.356Z,253.10
2018-10-12T01:52:17.231Z,372.93
2018-10-12T01:54:46.279Z,246.05
2018-10-12T01:57:15.096Z,243.20
2018-10-12T01:59:43.983Z,251.65
2018-10-12T02:02:12.736Z,247.05
2018-10-12T02:04:41.735Z,271.95
2018-10-12T02:07:10.910Z,252.20
2018-10-12T02:09:39.726Z,246.22
2018-10-12T02:12:08.521Z,235.70
2018-10-12T02:14:37.264Z,242.22
2018-10-12T02:17:05.976Z,248.10
2018-10-12T02:19:34.828Z,242.13
2018-10-12T02:22:03.711Z,391.10
2018-10-12T02:24:32.563Z,240.40
2018-10-12T02:27:02.260Z,241.53
2018-10-12T02:29:31.115Z,245.70
2018-10-12T02:32:00.371Z,236.97
2018-10-12T02:34:30.340Z,236.40
2018-10-12T02:36:59.570Z,253.90
2018-10-12T02:39:28.603Z,244.90
2018-10-12T02:41:57.384Z,248.03
2018-10-12T02:44:26.171Z,249.77
2018-10-12T02:46:55.002Z,244.28
2018-10-12T02:49:24.265Z,251.10
2018-10-12T02:51:53.152Z,242.95
2018-10-12T02:54:22.144Z,248.75
2018-10-12T02:56:50.846Z,246.10
2018-10-12T02:59:19.519Z,256.00
2018-10-12T03:01:48.680Z,261.73
2018-10-12T03:04:17.432Z,267.43
2018-10-12T03:06:46.325Z,250.47
2018-10-12T03:09:15.906Z,256.47
2018-10-12T03:11:44.649Z,265.85
2018-10-12T03:14:13.360Z,277.52
2018-10-12T03:16:42.398Z,260.85
2018-10-12T03:19:10.914Z,246.93
2018-10-12T03:21:40.412Z,244.05
2018-10-12T03:24:09.604Z,244.60
2018-10-12T03:26:38.327Z,245.00
2018-10-12T03:29:07.255Z,239.50
2018-10-12T03:31:35.946Z,249.18
2018-10-12T03:34:04.517Z,249.05
2018-10-12T03:36:33.278Z,261.87
2018-10-12T03:39:02.069Z,247.35
2018-10-12T03:41:31.169Z,246.80
2018-10-12T03:43:59.853Z,240.80
2018-10-12T03:46:28.928Z,258.00
2018-10-12T03:48:57.745Z,258.05
2018-10-12T03:51:26.851Z,257.30
2018-10-12T03:53:55.584Z,253.18
2018-10-12T03:56:25.920Z,256.20
2018-10-12T03:58:54.687Z,265.92
2018-10-12T04:01:23.637Z,270.12
2018-10-12T04:03:52.494Z,256.45
2018-10-12T04:06:21.731Z,263.07
2018-10-12T04:08:50.585Z,256.75
2018-10-12T04:11:19.557Z,256.93
2018-10-12T04:13:49.571Z,245.85
2018-10-12T04:16:18.838Z,245.20
2018-10-12T04:18:47.829Z,249.35
2018-10-12T04:21:16.546Z,255.62
2018-10-12T04:23:45.368Z,246.85
2018-10-12T04:26:14.143Z,246.07
2018-10-12T04:28:43.403Z,244.22
2018-10-12T04:31:12.025Z,253.25
2018-10-12T04:33:40.587Z,264.65
2018-10-12T04:36:09.194Z,254.95
2018-10-12T04:39:48.270Z,285.25
2018-10-12T04:42:17.228Z,311.23
2018-10-12T04:44:46.029Z,303.88
2018-10-12T04:47:15.382Z,365.37
2018-10-12T04:49:44.116Z,254.82
2018-10-12T04:52:12.829Z,253.80
2018-10-12T04:54:41.765Z,271.93
2018-10-12T04:57:25.190Z,263.25
2018-10-12T04:59:53.821Z,268.05
2018-10-12T05:02:22.399Z,280.92
2018-10-12T05:04:50.959Z,256.00
2018-10-12T05:07:19.961Z,251.40
2018-10-12T05:09:49.401Z,251.27
2018-10-12T05:12:18.982Z,249.07
2018-10-12T05:14:49.369Z,268.35
2018-10-12T05:17:18.171Z,264.50
2018-10-12T05:19:47.223Z,247.40
2018-10-12T05:22:17.465Z,242.62
2018-10-12T05:24:46.752Z,250.47
2018-10-12T05:27:16.270Z,254.15
2018-10-12T05:29:51.469Z,265.32
2018-10-12T05:32:21.255Z,255.77
2018-10-12T05:34:50.905Z,246.47
2018-10-12T05:37:20.164Z,248.75
2018-10-12T05:39:49.192Z,248.47
2018-10-12T05:42:17.829Z,262.02
2018-10-12T05:44:46.519Z,263.68
2018-10-12T05:47:15.225Z,308.50
2018-10-12T05:50:05.003Z,264.77
2018-10-12T05:52:34.004Z,259.60
2018-10-12T05:55:04.280Z,262.32
2018-10-12T05:57:36.533Z,279.77
2018-10-12T06:00:06.493Z,267.25
2018-10-12T06:02:35.801Z,262.10
2018-10-12T06:05:05.066Z,277.80
2018-10-12T06:07:34.751Z,273.70
2018-10-12T06:10:03.569Z,257.57
2018-10-12T06:12:32.880Z,284.37
2018-10-12T06:15:01.818Z,263.27
2018-10-12T06:17:33.632Z,272.77
2018-10-12T06:20:02.291Z,255.07
2018-10-12T06:22:31.107Z,324.15
2018-10-12T06:25:00.214Z,267.75
2018-10-12T06:27:29.540Z,308.38
2018-10-12T06:29:58.197Z,340.37
2018-10-12T06:35:17.062Z,308.93
2018-10-12T06:37:45.914Z,355.48
2018-10-12T06:40:14.747Z,295.03
2018-10-12T06:42:43.780Z,329.95
2018-10-12T06:45:12.440Z,324.75
2018-10-12T06:47:41.078Z,324.65
2018-10-12T06:50:13.539Z,381.80
2018-10-12T06:52:42.598Z,359.95
2018-10-12T06:55:11.216Z,392.98
2018-10-12T06:57:39.961Z,394.13
2018-10-12T07:00:08.773Z,339.63
2018-10-12T07:02:37.504Z,397.63
2018-10-12T07:05:06.297Z,331.98
2018-10-12T07:07:35.668Z,396.30
2018-10-12T07:10:07.082Z,345.77
2018-10-12T07:12:36.256Z,365.70
2018-10-12T07:15:05.087Z,349.45
2018-10-12T07:17:34.231Z,365.98
2018-10-12T07:20:03.091Z,342.18
2018-10-12T07:22:31.973Z,303.73
2018-10-12T07:25:00.913Z,312.75
2018-10-12T07:27:30.261Z,314.45
2018-10-12T07:29:59.418Z,283.40
2018-10-12T07:32:28.701Z,293.23
2018-10-12T07:34:59.213Z,277.43
2018-10-12T07:37:28.063Z,280.00
2018-10-12T07:39:56.834Z,278.62
2018-10-12T07:42:25.606Z,288.23
2018-10-12T07:44:54.475Z,298.52
2018-10-12T07:47:25.687Z,334.50
2018-10-12T07:49:58.417Z,391.30
2018-10-12T07:52:30.231Z,416.10
2018-10-12T07:54:59.631Z,423.40
2018-10-12T07:57:30.190Z,472.40
2018-10-12T08:00:01.718Z,472.48
2018-10-12T08:02:30.750Z,444.70
2018-10-12T08:05:01.015Z,482.85
2018-10-12T08:07:33.816Z,563.95
2018-10-12T08:10:03.872Z,459.83
2018-10-12T08:12:32.578Z,536.33
2018-10-12T08:15:02.669Z,504.20
2018-10-12T08:17:32.609Z,610.00
2018-10-12T08:20:01.502Z,535.33
2018-10-12T08:22:31.337Z,756.15
2018-10-12T08:25:00.392Z,527.88
2018-10-12T08:27:29.139Z,443.02
2018-10-12T08:29:59.341Z,581.65
2018-10-12T08:32:28.502Z,664.67
2018-10-12T08:34:57.464Z,677.97
2018-10-12T08:37:26.429Z,708.42
2018-10-12T08:39:55.188Z,900.83
2018-10-12T08:42:24.729Z,689.90
2018-10-12T08:44:54.151Z,674.85
2018-10-12T08:47:23.822Z,753.50
2018-10-12T08:49:53.498Z,792.77
2018-10-12T08:52:23.228Z,789.10
2018-10-12T08:54:53.930Z,736.85
2018-10-12T08:57:23.303Z,960.80
2018-10-12T08:59:52.125Z,823.90
2018-10-12T09:02:20.865Z,704.27
2018-10-12T09:04:50.415Z,795.35
2018-10-12T09:07:19.913Z,1006.65
2018-10-12T09:09:50.097Z,758.65
2018-10-12T09:12:18.878Z,999.92
2018-10-12T09:14:48.853Z,587.95
2018-10-12T09:17:18.971Z,947.75
2018-10-12T09:19:51.542Z,643.50
2018-10-12T09:22:22.135Z,953.95
2018-10-12T09:24:53.620Z,1177.50
2018-10-12T09:27:24.253Z,961.48
2018-10-12T09:29:54.702Z,939.52
2018-10-12T09:32:24.181Z,942.13
2018-10-12T09:34:53.200Z,1058.58
2018-10-12T09:37:24.112Z,964.00
2018-10-12T09:39:53.980Z,993.67
2018-10-12T09:42:23.086Z,1118.70
2018-10-12T09:44:52.771Z,1004.08
2018-10-12T09:47:22.449Z,941.70
2018-10-12T09:49:51.482Z,1113.70
2018-10-12T09:52:21.819Z,852.28
2018-10-12T09:54:52.433Z,825.38
2018-10-12T09:57:32.194Z,850.88
2018-10-12T10:00:02.422Z,864.12
2018-10-12T10:02:36.182Z,881.27
2018-10-12T10:05:08.533Z,858.53
2018-10-12T10:07:40.083Z,987.37
2018-10-12T10:10:11.342Z,1064.72
2018-10-12T10:12:43.000Z,1066.68
2018-10-12T10:15:12.948Z,1091.30
2018-10-12T10:17:43.703Z,1025.10
2018-10-12T10:20:13.859Z,1131.43
2018-10-12T10:22:48.300Z,1514.58
2018-10-12T10:25:17.143Z,1237.15
2018-10-12T10:27:46.555Z,1220.08
2018-10-12T10:30:19.817Z,1188.88
2018-10-12T10:32:51.244Z,1138.70
2018-10-12T10:35:20.987Z,1092.68
2018-10-12T10:37:51.676Z,1122.30
2018-10-12T10:40:21.155Z,1024.78
2018-10-12T10:42:50.615Z,1056.75
2018-10-12T10:45:19.914Z,1051.18
2018-10-12T10:48:02.876Z,992.25
2018-10-12T10:50:33.345Z,1055.83
2018-10-12T10:53:19.248Z,1184.95
2018-10-12T10:56:15.618Z,1237.72
2018-10-12T10:59:18.456Z,1249.90
2018-10-12T11:02:15.205Z,1188.25
2018-10-12T11:04:54.156Z,1295.58
2018-10-12T11:07:24.082Z,1455.25
2018-10-12T11:09:52.975Z,1403.38
2018-10-12T11:12:23.374Z,1683.10
2018-10-12T11:14:52.748Z,1510.78
2018-10-12T11:17:22.824Z,1406.50
2018-10-12T11:19:57.858Z,1397.18
2018-10-12T11:22:27.864Z,1256.15
2018-10-12T11:24:56.997Z,1195.80
2018-10-12T11:27:25.701Z,1041.33
2018-10-12T11:29:54.219Z,1003.33
2018-10-12T11:32:22.815Z,1033.83
2018-10-12T11:34:51.564Z,910.35
2018-10-12T11:37:21.264Z,1006.38
2018-10-12T11:39:50.432Z,1088.83
2018-10-12T11:42:20.840Z,1123.22
2018-10-12T11:44:50.657Z,1126.65
2018-10-12T11:47:20.012Z,1472.43
2018-10-12T11:49:49.731Z,1190.40
2018-10-12T11:52:18.579Z,1129.10
2018-10-12T11:54:47.122Z,1227.00
2018-10-12T11:57:16.428Z,1204.80
2018-10-12T11:59:45.506Z,1263.50
2018-10-12T12:02:15.044Z,1280.83
2018-10-12T12:04:44.177Z,1294.03
2018-10-12T12:07:13.346Z,1289.78
2018-10-12T12:09:42.124Z,1248.18
2018-10-12T12:12:11.297Z,1213.40
2018-10-12T12:14:40.056Z,1196.35
2018-10-12T12:17:08.756Z,1130.47
2018-10-12T12:19:37.915Z,1039.23
2018-10-12T12:22:07.375Z,1033.63
2018-10-12T12:24:36.244Z,1096.72
2018-10-12T12:27:06.111Z,1005.17
2018-10-12T12:29:37.528Z,973.20
2018-10-12T12:32:07.684Z,999.13
2018-10-12T12:34:38.220Z,971.37
2018-10-12T12:37:10.555Z,904.60
2018-10-12T12:39:44.610Z,997.85
2018-10-12T12:42:14.286Z,903.63
2018-10-12T12:44:44.466Z,1007.87
2018-10-12T12:47:13.932Z,1035.65
2018-10-12T12:49:52.101Z,1012.90
2018-10-12T12:52:30.252Z,1013.37
2018-10-12T12:55:08.107Z,985.45
2018-10-12T12:57:37.555Z,913.57
2018-10-12T13:00:06.329Z,949.30
2018-10-12T13:02:36.321Z,924.53
2018-10-12T13:05:05.698Z,927.02
2018-10-12T13:07:37.210Z,880.85
2018-10-12T13:10:06.500Z,826.30
2018-10-12T13:12:35.904Z,790.38
2018-10-12T13:15:04.558Z,848.20
2018-10-12T13:17:33.848Z,866.90
2018-10-12T13:20:03.242Z,787.50
2018-10-12T13:22:32.274Z,763.25
2018-10-12T13:25:00.976Z,778.83
2018-10-12T13:27:29.986Z,860.52
2018-10-12T13:29:59.144Z,910.58
2018-10-12T13:32:28.264Z,961.30
2018-10-12T13:34:59.813Z,1015.35
2018-10-12T13:37:29.396Z,1191.45
2018-10-12T13:39:59.267Z,1275.98
2018-10-12T13:42:28.852Z,1324.72
2018-10-12T13:44:58.041Z,1435.05
2018-10-12T13:47:27.404Z,1540.75
2018-10-12T13:49:56.370Z,1353.80
2018-10-12T13:52:25.474Z,1306.85
2018-10-12T13:54:55.875Z,1385.88
2018-10-12T13:57:26.946Z,1591.47
2018-10-12T13:59:56.001Z,1467.75
2018-10-12T14:02:27.248Z,1348.65
2018-10-12T14:04:56.397Z,1432.33
2018-10-12T14:07:25.708Z,1396.30
2018-10-12T14:09:55.253Z,1384.90
2018-10-12T14:12:25.653Z,1355.10
2018-10-12T14:14:54.782Z,1386.73
2018-10-12T14:17:24.305Z,1359.40
2018-10-12T14:19:54.019Z,1351.45
2018-10-12T14:22:23.659Z,1413.35
2018-10-12T14:24:52.907Z,1367.93
2018-10-12T14:27:21.809Z,1349.22
2018-10-12T14:29:52.742Z,1276.60
2018-10-12T14:32:22.439Z,1251.00
2018-10-12T14:34:52.109Z,1240.10
2018-10-12T14:37:23.331Z,1177.22
2018-10-12T14:39:53.497Z,1106.35
2018-10-12T14:42:25.159Z,1246.78
2018-10-12T14:44:55.356Z,1276.42
2018-10-12T14:47:27.449Z,1222.70
2018-10-12T14:49:58.019Z,1165.65
2018-10-12T14:52:29.327Z,1121.20
2018-10-12T14:55:03.560Z,1123.88
2018-10-12T14:57:39.197Z,1138.43
2018-10-12T15:00:12.241Z,1137.00
2018-10-12T15:02:52.572Z,1171.45
2018-10-12T15:05:23.267Z,1177.88
2018-10-12T15:07:53.614Z,1257.68
2018-10-12T15:10:24.235Z,1248.25
2018-10-12T15:12:55.494Z,1305.33
2018-10-12T15:15:31.115Z,1309.03
2018-10-12T15:18:01.034Z,1291.58
2018-10-12T15:20:33.151Z,1230.10
2018-10-12T15:23:02.096Z,1275.90
2018-10-12T15:25:33.460Z,1207.05
2018-10-12T15:28:03.581Z,1213.08
2018-10-12T15:30:32.359Z,1207.38
2018-10-12T15:33:01.520Z,1331.63
2018-10-12T15:35:30.821Z,1204.75
2018-10-12T15:38:00.312Z,1171.50
2018-10-12T15:40:29.479Z,1189.70
2018-10-12T15:42:58.330Z,1252.00
2018-10-12T15:45:27.410Z,1092.55
2018-10-12T15:47:56.501Z,1176.25
2018-10-12T15:50:25.903Z,1071.60
2018-10-12T15:52:55.240Z,1034.35
2018-10-12T15:55:25.030Z,1004.30
2018-10-12T15:57:53.876Z,959.77
2018-10-12T16:00:23.052Z,917.80
2018-10-12T16:02:52.325Z,967.47
2018-10-12T16:05:22.453Z,896.52
2018-10-12T16:07:52.409Z,938.18
2018-10-12T16:10:21.973Z,823.12
2018-10-12T16:12:51.223Z,933.45
2018-10-12T16:15:22.267Z,897.33
2018-10-12T16:17:53.093Z,845.40
2018-10-12T16:20:23.488Z,825.75
2018-10-12T16:22:53.949Z,830.05
2018-10-12T16:26:01.257Z,920.48
2018-10-12T16:28:30.449Z,902.97
2018-10-12T16:30:59.945Z,779.48
2018-10-12T16:33:30.306Z,838.42
2018-10-12T16:36:01.746Z,734.55
2018-10-12T16:38:31.125Z,904.15
2018-10-12T16:40:59.773Z,612.25
2018-10-12T16:43:30.014Z,655.35
2018-10-12T16:45:59.108Z,599.48
2018-10-12T16:48:28.035Z,741.12
2018-10-12T16:50:57.677Z,705.42
2018-10-12T16:53:26.515Z,662.15
2018-10-12T16:55:58.796Z,668.42
2018-10-12T16:58:28.812Z,590.67
2018-10-12T17:00:57.888Z,585.92
2018-10-12T17:03:27.646Z,552.45
2018-10-12T17:05:56.614Z,589.67
2018-10-12T17:08:27.119Z,670.45
2018-10-12T17:10:58.353Z,738.67
2018-10-12T17:13:28.108Z,740.08
2018-10-12T17:15:57.194Z,651.40
2018-10-12T17:18:26.203Z,620.67
2018-10-12T17:20:55.488Z,599.10
2018-10-12T17:23:32.726Z,654.98
2018-10-12T17:26:01.844Z,627.92
2018-10-12T17:28:31.200Z,553.33
2018-10-12T17:31:00.123Z,478.15
2018-10-12T17:33:28.985Z,519.35
2018-10-12T17:35:57.825Z,500.90
2018-10-12T17:38:26.789Z,488.45
2018-10-12T17:40:55.731Z,499.75
2018-10-12T17:43:25.656Z,464.43
2018-10-12T17:45:55.463Z,447.43
2018-10-12T17:48:26.895Z,484.33
2018-10-12T17:50:57.392Z,433.38
2018-10-12T17:53:27.518Z,435.35
2018-10-12T17:55:56.908Z,438.50
2018-10-12T17:58:26.603Z,459.55
2018-10-12T18:00:57.006Z,416.08
2018-10-12T18:03:26.618Z,415.73
2018-10-12T18:05:56.130Z,464.30
2018-10-12T18:08:26.113Z,452.78
2018-10-12T18:10:58.577Z,438.85
2018-10-12T18:13:29.300Z,404.42
2018-10-12T18:15:58.806Z,405.07
2018-10-12T18:18:30.386Z,403.02
2018-10-12T18:21:00.266Z,385.77
2018-10-12T18:23:30.209Z,376.90
2018-10-12T18:26:02.491Z,388.95
2018-10-12T18:28:31.832Z,378.77
2018-10-12T18:31:04.642Z,390.60
2018-10-12T18:33:34.800Z,363.00
2018-10-12T18:36:08.920Z,420.98
2018-10-12T18:38:39.652Z,322.00
2018-10-12T18:41:09.313Z,353.30
2018-10-12T18:43:38.240Z,350.45
2018-10-12T18:46:08.061Z,349.18
2018-10-12T18:48:37.451Z,402.50
2018-10-12T18:51:07.093Z,389.15
2018-10-12T18:53:36.258Z,370.80
2018-10-12T18:56:05.247Z,336.50
2018-10-12T18:58:35.168Z,343.73
2018-10-12T19:01:04.524Z,408.42
2018-10-12T19:03:33.882Z,369.25
2018-10-12T19:06:03.297Z,375.85
2018-10-12T19:08:32.580Z,388.80
2018-10-12T19:11:01.710Z,331.00
2018-10-12T19:13:30.544Z,369.95
2018-10-12T19:15:59.597Z,361.07
2018-10-12T19:18:28.672Z,368.33
2018-10-12T19:20:58.338Z,363.30
2018-10-12T19:23:28.105Z,357.60
2018-10-12T19:25:58.162Z,343.27
2018-10-12T19:28:28.126Z,311.48
2018-10-12T19:30:59.247Z,349.98
2018-10-12T19:33:28.203Z,348.27
2018-10-12T19:35:59.809Z,327.77
2018-10-12T19:38:29.714Z,283.32
2018-10-12T19:41:00.822Z,309.75
2018-10-12T19:43:30.963Z,376.35
2018-10-12T19:46:00.722Z,422.48
2018-10-12T19:48:31.880Z,333.77
2018-10-12T19:51:03.704Z,369.73
2018-10-12T19:53:34.232Z,315.00
2018-10-12T19:56:03.301Z,350.52
2018-10-12T19:58:34.464Z,348.77
2018-10-12T20:01:06.421Z,345.33
2018-10-12T20:03:36.392Z,326.00
2018-10-12T20:06:05.899Z,327.02
2018-10-12T20:08:35.090Z,335.48
2018-10-12T20:11:04.590Z,354.40
2018-10-12T20:13:34.885Z,338.27
2018-10-12T20:16:07.337Z,405.00
2018-10-12T20:18:36.868Z,389.85
2018-10-12T20:21:11.321Z,360.32
2018-10-12T20:23:40.496Z,343.65
2018-10-12T20:26:13.950Z,338.10
2018-10-12T20:28:43.361Z,296.52
2018-10-12T20:31:13.061Z,322.05
2018-10-12T20:33:41.725Z,310.88
2018-10-12T20:36:10.689Z,302.07
2018-10-12T20:38:41.363Z,307.02
2018-10-12T20:41:10.728Z,290.00
2018-10-12T20:43:39.644Z,294.87
2018-10-12T20:46:09.089Z,288.62
2018-10-12T20:48:37.865Z,313.52
2018-10-12T20:51:06.826Z,303.42
2018-10-12T20:53:35.964Z,372.17
2018-10-12T20:56:04.854Z,336.40
2018-10-12T20:58:33.760Z,342.02
2018-10-12T21:01:02.818Z,316.95
2018-10-12T21:03:31.471Z,288.62
2018-10-12T21:06:00.313Z,289.20
2018-10-12T21:08:29.031Z,293.73
2018-10-12T21:10:58.723Z,263.40
2018-10-12T21:13:27.821Z,297.52
2018-10-12T21:15:58.132Z,314.27
2018-10-12T21:18:27.050Z,291.25
2018-10-12T21:20:58.138Z,288.62
2018-10-12T21:23:27.420Z,295.25
2018-10-12T21:25:56.945Z,309.98
2018-10-12T21:28:26.592Z,342.02
2018-10-12T21:30:55.707Z,301.92
2018-10-12T21:33:25.704Z,280.90
2018-10-12T21:35:54.800Z,278.10
2018-10-12T21:38:24.914Z,272.25
2018-10-12T21:40:55.220Z,266.23
2018-10-12T21:43:24.408Z,282.05
2018-10-12T21:45:53.492Z,296.63
2018-10-12T21:48:22.729Z,330.32
2018-10-12T21:50:51.870Z,314.72
2018-10-12T21:53:21.297Z,305.10
2018-10-12T21:55:50.628Z,298.80
2018-10-12T21:58:20.422Z,350.43
2018-10-12T22:00:54.632Z,314.72
2018-10-12T22:03:23.358Z,339.60
2018-10-12T22:05:52.096Z,352.65
2018-10-12T22:11:06.102Z,273.68
2018-10-12T22:13:35.353Z,329.98
2018-10-12T22:16:03.994Z,328.92
2018-10-12T22:18:32.751Z,314.72
2018-10-12T22:21:01.767Z,373.13
2018-10-12T22:23:30.651Z,322.93
2018-10-12T22:25:59.637Z,303.23
2018-10-12T22:28:28.374Z,260.77
2018-10-12T22:30:56.924Z,280.23
2018-10-12T22:33:25.795Z,287.02
2018-10-12T22:35:54.770Z,257.98
2018-10-12T22:38:23.761Z,268.25
2018-10-12T22:40:52.375Z,239.68
2018-10-12T22:43:21.681Z,250.10
2018-10-12T22:45:50.468Z,263.75
2018-10-12T22:48:20.080Z,253.85
2018-10-12T22:50:48.768Z,244.40
2018-10-12T22:53:17.658Z,271.75
2018-10-12T22:55:46.420Z,249.05
2018-10-12T22:58:16.091Z,259.87
2018-10-12T23:00:44.887Z,257.87
2018-10-12T23:03:13.598Z,274.75
2018-10-12T23:05:42.678Z,254.63
2018-10-12T23:08:11.427Z,260.88
2018-10-12T23:10:40.125Z,242.00
2018-10-12T23:13:08.945Z,243.07
2018-10-12T23:15:37.675Z,256.32
2018-10-12T23:18:06.435Z,240.68
2018-10-12T23:20:35.854Z,257.43
2018-10-12T23:23:04.527Z,251.12
2018-10-12T23:25:33.158Z,257.10
2018-10-12T23:28:01.910Z,247.15
2018-10-12T23:30:30.666Z,259.48
2018-10-12T23:33:04.788Z,253.85
2018-10-12T23:35:33.479Z,256.70
2018-10-12T23:38:02.230Z,252.05
2018-10-12T23:40:31.838Z,269.20
2018-10-12T23:43:01.053Z,282.27
2018-10-12T23:45:29.731Z,242.93
2018-10-12T23:47:58.508Z,291.50
2018-10-12T23:50:27.381Z,267.43
2018-10-12T23:52:56.097Z,253.12
2018-10-12T23:55:24.700Z,258.82
2018-10-12T23:57:53.319Z,270.73
